createdAt,value
2017-10-01T00:01:48.967Z,2.33
2017-10-01T00:04:17.314Z,2.73
2017-10-01T00:06:45.697Z,2.40
2017-10-01T00:09:14.037Z,2.67
2017-10-01T00:11:42.368Z,2.23
2017-10-01T00:14:10.693Z,2.50
2017-10-01T00:16:39.030Z,2.70
2017-10-01T00:19:07.334Z,2.70
2017-10-01T00:21:36.434Z,2.17
2017-10-01T00:24:05.502Z,2.83
2017-10-01T00:26:33.832Z,3.03
2017-10-01T00:29:02.170Z,2.70
2017-10-01T00:31:30.500Z,2.80
2017-10-01T00:33:58.822Z,2.63
2017-10-01T00:39:53.590Z,2.73
2017-10-01T00:42:21.929Z,3.00
2017-10-01T00:44:50.268Z,2.73
2017-10-01T00:47:18.570Z,2.37
2017-10-01T00:49:46.917Z,2.67
2017-10-01T00:52:16.020Z,2.13
2017-10-01T00:54:44.321Z,2.40
2017-10-01T00:57:12.665Z,3.20
2017-10-01T00:59:41.043Z,3.00
2017-10-01T01:02:09.399Z,3.70
2017-10-01T01:04:37.750Z,3.93
2017-10-01T01:07:06.109Z,3.43
2017-10-01T01:09:34.460Z,3.53
2017-10-01T01:12:02.832Z,3.23
2017-10-01T01:14:31.172Z,4.00
2017-10-01T01:16:59.534Z,4.47
2017-10-01T01:19:27.928Z,5.13
2017-10-01T01:21:57.067Z,6.57
2017-10-01T01:24:25.428Z,7.77
2017-10-01T01:26:53.787Z,7.53
2017-10-01T01:29:22.869Z,7.43
2017-10-01T01:31:51.208Z,7.67
2017-10-01T01:34:20.306Z,7.67
2017-10-01T01:36:49.452Z,8.60
2017-10-01T01:39:17.765Z,9.03
2017-10-01T01:41:46.106Z,8.80
2017-10-01T01:44:15.213Z,8.27
2017-10-01T01:46:44.322Z,8.80
2017-10-01T01:49:12.660Z,9.27
2017-10-01T01:51:41.010Z,9.27
2017-10-01T01:54:09.350Z,9.73
2017-10-01T01:56:38.480Z,11.37
2017-10-01T01:59:06.805Z,11.17
2017-10-01T02:01:35.166Z,9.60
2017-10-01T02:04:03.523Z,11.47
2017-10-01T02:06:31.981Z,11.37
2017-10-01T02:09:00.322Z,13.30
2017-10-01T02:11:28.680Z,12.17
2017-10-01T02:13:57.008Z,11.13
2017-10-01T02:16:26.225Z,13.20
2017-10-01T02:18:54.557Z,11.27
2017-10-01T02:21:22.898Z,12.17
2017-10-01T02:23:51.217Z,10.80
2017-10-01T02:26:19.573Z,11.03
2017-10-01T02:28:47.898Z,10.63
2017-10-01T02:31:17.002Z,12.20
2017-10-01T02:33:45.348Z,12.13
2017-10-01T02:36:13.701Z,13.80
2017-10-01T02:38:42.028Z,13.27
2017-10-01T02:41:10.394Z,13.23
2017-10-01T02:43:38.730Z,14.63
2017-10-01T02:46:07.085Z,14.77
2017-10-01T02:48:35.423Z,15.83
2017-10-01T02:51:03.778Z,17.17
2017-10-01T02:53:32.121Z,16.97
2017-10-01T02:56:00.534Z,19.10
2017-10-01T02:58:32.942Z,18.23
2017-10-01T03:01:01.308Z,18.83
2017-10-01T03:03:29.649Z,17.83
2017-10-01T03:05:58.020Z,19.90
2017-10-01T03:08:26.361Z,18.40
2017-10-01T03:10:55.491Z,18.03
2017-10-01T03:13:23.826Z,19.13
2017-10-01T03:16:11.729Z,18.50
2017-10-01T03:18:40.041Z,17.90
2017-10-01T03:21:08.393Z,18.47
2017-10-01T03:23:36.753Z,19.67
2017-10-01T03:26:05.115Z,18.60
2017-10-01T03:28:33.455Z,18.47
2017-10-01T03:31:01.812Z,17.47
2017-10-01T03:33:30.158Z,19.33
2017-10-01T03:35:58.518Z,18.90
2017-10-01T03:38:27.625Z,18.60
2017-10-01T03:40:55.977Z,17.50
2017-10-01T03:43:25.138Z,16.70
2017-10-01T03:45:53.512Z,17.60
2017-10-01T03:48:21.884Z,18.00
2017-10-01T03:50:50.292Z,16.77
2017-10-01T03:53:18.667Z,17.70
2017-10-01T03:55:47.053Z,17.90
2017-10-01T03:58:15.454Z,18.80
2017-10-01T04:00:44.585Z,18.23
2017-10-01T04:03:12.919Z,19.90
2017-10-01T04:05:41.240Z,19.17
2017-10-01T04:08:09.612Z,18.03
2017-10-01T04:10:37.962Z,19.20
2017-10-01T04:13:07.289Z,18.30
2017-10-01T04:15:36.396Z,17.93
2017-10-01T04:18:05.534Z,18.43
2017-10-01T04:20:33.873Z,18.37
2017-10-01T04:23:02.998Z,19.67
2017-10-01T04:25:31.331Z,20.07
2017-10-01T04:28:00.449Z,16.53
2017-10-01T04:30:29.538Z,18.70
2017-10-01T04:33:06.349Z,20.40
2017-10-01T04:35:34.669Z,18.60
2017-10-01T04:38:03.029Z,18.17
2017-10-01T04:40:31.353Z,18.20
2017-10-01T04:43:00.626Z,19.07
2017-10-01T04:45:28.953Z,18.10
2017-10-01T04:47:57.296Z,17.60
2017-10-01T04:50:30.274Z,17.03
2017-10-01T04:52:58.613Z,18.10
2017-10-01T04:55:26.941Z,16.67
2017-10-01T04:57:55.287Z,16.73
2017-10-01T05:00:23.610Z,16.33
2017-10-01T05:02:51.982Z,20.37
2017-10-01T05:05:20.306Z,16.47
2017-10-01T05:07:48.658Z,18.30
2017-10-01T05:10:18.762Z,18.90
2017-10-01T05:12:47.866Z,17.73
2017-10-01T05:15:16.962Z,17.77
2017-10-01T05:17:46.080Z,17.50
2017-10-01T05:20:14.408Z,18.13
2017-10-01T05:22:42.764Z,17.40
2017-10-01T05:25:11.085Z,17.73
2017-10-01T05:27:42.433Z,17.57
2017-10-01T05:30:16.826Z,15.47
2017-10-01T05:32:49.972Z,17.57
2017-10-01T05:35:18.304Z,16.30
2017-10-01T05:37:46.659Z,17.10
2017-10-01T05:40:14.991Z,17.37
2017-10-01T05:42:43.339Z,17.47
2017-10-01T05:45:35.840Z,17.27
2017-10-01T05:48:04.177Z,16.67
2017-10-01T05:50:32.502Z,18.00
2017-10-01T05:53:00.847Z,17.90
2017-10-01T05:55:29.933Z,18.00
2017-10-01T05:57:58.285Z,15.77
2017-10-01T06:00:26.611Z,19.10
2017-10-01T06:03:13.751Z,16.60
2017-10-01T06:05:42.078Z,17.57
2017-10-01T06:08:10.414Z,18.40
2017-10-01T06:10:38.734Z,16.90
2017-10-01T06:13:07.078Z,19.30
2017-10-01T06:15:35.396Z,16.17
2017-10-01T06:18:03.744Z,16.27
2017-10-01T06:20:37.386Z,17.90
2017-10-01T06:23:05.741Z,15.57
2017-10-01T06:25:34.060Z,16.10
2017-10-01T06:28:03.166Z,15.77
2017-10-01T06:30:32.246Z,14.93
2017-10-01T06:33:01.355Z,15.37
2017-10-01T06:35:30.461Z,16.30
2017-10-01T06:37:58.806Z,14.50
2017-10-01T06:40:27.126Z,14.33
2017-10-01T06:42:55.469Z,15.20
2017-10-01T06:45:24.575Z,15.10
2017-10-01T06:47:53.691Z,13.43
2017-10-01T06:50:22.005Z,14.27
2017-10-01T06:52:50.362Z,13.70
2017-10-01T06:55:18.687Z,12.50
2017-10-01T06:57:47.022Z,12.67
2017-10-01T07:00:15.362Z,13.57
2017-10-01T07:02:44.485Z,12.73
2017-10-01T07:05:12.821Z,13.33
2017-10-01T07:07:41.170Z,12.57
2017-10-01T07:10:10.270Z,12.70
2017-10-01T07:12:39.626Z,12.10
2017-10-01T07:15:08.721Z,13.60
2017-10-01T07:17:37.867Z,13.00
2017-10-01T07:20:06.194Z,12.10
2017-10-01T07:22:35.303Z,12.17
2017-10-01T07:25:03.633Z,10.60
2017-10-01T07:27:32.006Z,10.20
2017-10-01T07:30:00.335Z,9.97
2017-10-01T07:32:29.448Z,9.27
2017-10-01T07:34:57.771Z,8.70
2017-10-01T07:37:26.116Z,7.93
2017-10-01T07:39:54.445Z,8.83
2017-10-01T07:42:23.571Z,7.13
2017-10-01T07:44:52.654Z,7.80
2017-10-01T07:47:21.762Z,9.37
2017-10-01T07:49:50.086Z,8.03
2017-10-01T07:52:18.422Z,9.70
2017-10-01T07:54:47.506Z,6.63
2017-10-01T07:57:16.623Z,6.57
2017-10-01T07:59:44.962Z,8.00
2017-10-01T08:02:13.306Z,7.40
2017-10-01T08:04:41.616Z,8.17
2017-10-01T08:07:09.956Z,6.70
2017-10-01T08:09:52.876Z,8.03
2017-10-01T08:12:21.997Z,9.13
2017-10-01T08:14:50.321Z,7.57
2017-10-01T08:17:19.422Z,6.93
2017-10-01T08:19:48.498Z,7.40
2017-10-01T08:22:16.828Z,8.37
2017-10-01T08:24:45.150Z,8.07
2017-10-01T08:27:13.490Z,7.57
2017-10-01T08:29:41.811Z,7.10
2017-10-01T08:32:10.150Z,7.67
2017-10-01T08:34:38.496Z,7.10
2017-10-01T08:37:06.838Z,6.90
2017-10-01T08:39:35.142Z,6.40
2017-10-01T08:42:04.256Z,6.20
2017-10-01T08:44:32.568Z,5.33
2017-10-01T08:47:00.885Z,6.80
2017-10-01T08:49:29.242Z,5.53
2017-10-01T08:51:57.544Z,4.97
2017-10-01T08:54:26.643Z,5.80
2017-10-01T08:56:55.721Z,5.73
2017-10-01T08:59:24.063Z,5.70
2017-10-01T09:01:52.378Z,4.50
2017-10-01T09:04:20.717Z,4.43
2017-10-01T09:06:49.034Z,5.10
2017-10-01T09:09:17.363Z,4.33
2017-10-01T09:11:45.707Z,3.80
2017-10-01T09:14:14.039Z,4.90
2017-10-01T09:16:42.344Z,4.50
2017-10-01T09:19:10.682Z,5.10
2017-10-01T09:21:39.000Z,5.33
2017-10-01T09:24:07.336Z,5.80
2017-10-01T09:26:36.413Z,4.60
2017-10-01T09:29:05.511Z,5.30
2017-10-01T09:31:33.823Z,4.40
2017-10-01T09:34:02.155Z,4.13
2017-10-01T09:36:31.236Z,4.57
2017-10-01T09:39:00.309Z,3.90
2017-10-01T09:41:28.630Z,3.50
2017-10-01T09:43:57.742Z,3.60
2017-10-01T09:46:26.079Z,3.30
2017-10-01T09:48:54.390Z,3.43
2017-10-01T09:51:23.486Z,3.10
2017-10-01T09:53:52.560Z,2.73
2017-10-01T09:56:20.891Z,2.90
2017-10-01T09:58:49.210Z,2.73
2017-10-01T10:01:17.552Z,2.40
2017-10-01T10:03:45.873Z,2.87
2017-10-01T10:06:14.201Z,2.60
2017-10-01T10:08:42.509Z,2.90
2017-10-01T10:11:10.838Z,3.00
2017-10-01T10:13:39.182Z,2.17
2017-10-01T10:16:07.529Z,2.97
2017-10-01T10:18:35.847Z,2.60
2017-10-01T10:21:04.154Z,3.30
2017-10-01T10:23:32.526Z,2.83
2017-10-01T10:26:01.605Z,2.93
2017-10-01T10:28:30.693Z,2.30
2017-10-01T10:30:59.010Z,2.53
2017-10-01T10:33:27.358Z,2.20
2017-10-01T10:35:57.190Z,2.30
2017-10-01T10:38:26.292Z,2.40
2017-10-01T10:40:54.607Z,2.93
2017-10-01T10:43:22.933Z,2.70
2017-10-01T10:45:52.002Z,2.50
2017-10-01T10:48:20.338Z,2.17
2017-10-01T10:50:48.652Z,1.93
2017-10-01T10:53:16.977Z,1.60
2017-10-01T10:55:45.281Z,2.50
2017-10-01T10:58:13.620Z,1.93
2017-10-01T11:00:41.938Z,1.77
2017-10-01T11:03:10.289Z,2.17
2017-10-01T11:05:39.368Z,1.53
2017-10-01T11:08:08.472Z,1.90
2017-10-01T11:10:37.551Z,1.80
2017-10-01T11:13:05.860Z,1.63
2017-10-01T11:15:34.204Z,1.57
2017-10-01T11:18:02.523Z,1.97
2017-10-01T11:20:30.872Z,2.00
2017-10-01T11:22:59.949Z,1.20
2017-10-01T11:25:28.320Z,1.20
2017-10-01T11:27:56.631Z,1.40
2017-10-01T11:30:28.245Z,1.17
2017-10-01T11:32:56.580Z,1.67
2017-10-01T11:35:24.930Z,1.50
2017-10-01T11:37:53.247Z,1.10
2017-10-01T11:40:21.587Z,1.63
2017-10-01T11:42:50.842Z,1.20
2017-10-01T11:45:19.327Z,1.40
2017-10-01T11:47:53.731Z,1.07
2017-10-01T11:54:42.539Z,1.37
2017-10-01T11:57:10.882Z,1.20
2017-10-01T11:59:39.203Z,1.47
2017-10-01T12:02:07.546Z,1.30
2017-10-01T12:04:35.868Z,1.73
2017-10-01T12:07:04.222Z,1.10
2017-10-01T12:09:32.542Z,1.13
2017-10-01T12:12:00.894Z,1.77
2017-10-01T12:14:29.197Z,1.30
2017-10-01T12:16:57.545Z,1.20
2017-10-01T12:19:25.861Z,1.03
2017-10-01T12:21:54.171Z,1.20
2017-10-01T12:24:22.511Z,1.20
2017-10-01T12:26:50.824Z,1.23
2017-10-01T12:29:19.160Z,1.57
2017-10-01T12:31:47.477Z,1.20
2017-10-01T12:34:16.580Z,1.47
2017-10-01T12:36:44.948Z,1.43
2017-10-01T12:39:14.054Z,1.33
2017-10-01T12:41:42.371Z,1.20
2017-10-01T12:44:10.715Z,1.40
2017-10-01T12:46:39.037Z,1.70
2017-10-01T12:49:07.381Z,1.10
2017-10-01T12:51:35.709Z,2.80
2017-10-01T12:54:04.034Z,2.10
2017-10-01T12:56:32.350Z,1.60
2017-10-01T12:59:00.716Z,1.00
2017-10-01T13:01:34.590Z,1.20
2017-10-01T13:04:02.973Z,1.40
2017-10-01T13:06:31.290Z,1.17
2017-10-01T13:08:59.602Z,1.10
2017-10-01T13:11:27.935Z,1.40
2017-10-01T13:13:56.250Z,1.30
2017-10-01T13:16:24.593Z,1.43
2017-10-01T13:18:52.911Z,1.33
2017-10-01T13:21:21.245Z,1.30
2017-10-01T13:23:49.595Z,1.00
2017-10-01T13:26:18.704Z,1.03
2017-10-01T13:28:47.019Z,2.07
2017-10-01T13:31:15.353Z,1.20
2017-10-01T13:33:43.664Z,0.90
2017-10-01T13:36:12.001Z,1.40
2017-10-01T13:38:41.088Z,1.73
2017-10-01T13:41:10.197Z,1.70
2017-10-01T13:43:39.275Z,1.30
2017-10-01T13:46:07.611Z,1.00
2017-10-01T13:48:35.927Z,1.10
2017-10-01T13:51:04.283Z,1.07
2017-10-01T13:53:32.603Z,1.20
2017-10-01T13:56:01.688Z,1.10
2017-10-01T13:58:30.795Z,1.60
2017-10-01T14:00:59.874Z,1.30
2017-10-01T14:03:28.984Z,1.10
2017-10-01T14:05:58.061Z,1.20
2017-10-01T14:08:29.948Z,1.23
2017-10-01T14:10:59.028Z,1.40
2017-10-01T14:13:27.352Z,1.23
2017-10-01T14:15:55.671Z,1.20
2017-10-01T14:18:24.001Z,1.17
2017-10-01T14:20:52.322Z,1.13
2017-10-01T14:23:20.656Z,1.10
2017-10-01T14:25:49.035Z,3.27
2017-10-01T14:28:17.382Z,1.80
2017-10-01T14:30:52.164Z,1.13
2017-10-01T14:33:20.506Z,1.30
2017-10-01T14:35:49.581Z,1.10
2017-10-01T14:38:17.896Z,1.27
2017-10-01T14:40:46.229Z,1.13
2017-10-01T14:43:14.540Z,1.00
2017-10-01T14:45:42.886Z,1.60
2017-10-01T14:48:11.211Z,1.40
2017-10-01T14:50:39.546Z,1.20
2017-10-01T14:53:07.865Z,1.50
2017-10-01T14:55:55.934Z,1.27
2017-10-01T14:58:24.244Z,1.37
2017-10-01T15:03:52.566Z,1.10
2017-10-01T15:06:21.018Z,1.20
2017-10-01T15:08:49.334Z,1.60
2017-10-01T15:11:17.666Z,1.30
2017-10-01T15:13:47.497Z,1.10
2017-10-01T15:16:15.832Z,1.33
2017-10-01T15:18:44.146Z,1.27
2017-10-01T15:21:12.481Z,1.13
2017-10-01T15:23:40.822Z,1.10
2017-10-01T15:26:09.921Z,1.10
2017-10-01T15:28:38.989Z,0.97
2017-10-01T15:31:07.323Z,1.00
2017-10-01T15:33:35.642Z,1.60
2017-10-01T15:36:03.978Z,1.03
2017-10-01T15:38:32.308Z,1.13
2017-10-01T15:41:00.638Z,1.13
2017-10-01T15:43:28.959Z,1.23
2017-10-01T15:45:57.300Z,1.13
2017-10-01T15:48:26.385Z,1.00
2017-10-01T15:50:54.720Z,1.27
2017-10-01T15:53:23.046Z,1.40
2017-10-01T15:55:51.390Z,1.53
2017-10-01T15:58:23.854Z,1.53
2017-10-01T16:00:53.722Z,1.00
2017-10-01T16:03:22.035Z,1.57
2017-10-01T16:05:50.361Z,1.53
2017-10-01T16:08:18.673Z,1.47
2017-10-01T16:10:47.014Z,1.60
2017-10-01T16:13:15.326Z,1.27
2017-10-01T16:15:43.665Z,1.50
2017-10-01T16:18:12.737Z,1.30
2017-10-01T16:20:41.238Z,4.47
2017-10-01T16:23:09.701Z,2.00
2017-10-01T16:25:38.823Z,1.50
2017-10-01T16:28:07.143Z,1.40
2017-10-01T16:30:35.475Z,1.27
2017-10-01T16:33:04.567Z,2.80
2017-10-01T16:35:33.671Z,3.80
2017-10-01T16:38:02.754Z,2.23
2017-10-01T16:40:31.859Z,3.43
2017-10-01T16:43:00.181Z,2.97
2017-10-01T16:45:28.509Z,2.73
2017-10-01T16:47:57.590Z,2.90
2017-10-01T16:50:25.913Z,2.20
2017-10-01T16:52:54.214Z,2.70
2017-10-01T16:55:22.561Z,2.30
2017-10-01T16:57:50.869Z,2.70
2017-10-01T17:00:19.192Z,2.20
2017-10-01T17:02:48.295Z,2.23
2017-10-01T17:05:17.391Z,2.50
2017-10-01T17:07:47.015Z,2.50
2017-10-01T17:10:16.163Z,2.63
2017-10-01T17:12:44.494Z,2.50
2017-10-01T17:15:12.809Z,2.63
2017-10-01T17:17:41.145Z,2.90
2017-10-01T17:20:10.218Z,3.70
2017-10-01T17:22:38.550Z,3.50
2017-10-01T17:25:06.854Z,3.20
2017-10-01T17:27:35.185Z,2.83
2017-10-01T17:30:03.505Z,1.87
2017-10-01T17:32:31.852Z,2.27
2017-10-01T17:35:00.173Z,2.43
2017-10-01T17:37:28.531Z,2.00
2017-10-01T17:39:56.839Z,1.90
2017-10-01T17:42:26.077Z,1.63
2017-10-01T17:44:54.398Z,2.17
2017-10-01T17:47:22.734Z,3.50
2017-10-01T17:49:51.044Z,2.97
2017-10-01T17:52:19.349Z,3.03
2017-10-01T17:54:47.677Z,4.10
2017-10-01T17:57:16.007Z,5.20
2017-10-01T17:59:44.337Z,4.37
2017-10-01T18:02:12.647Z,3.40
2017-10-01T18:04:40.977Z,3.63
2017-10-01T18:07:10.055Z,3.20
2017-10-01T18:09:39.154Z,3.37
2017-10-01T18:12:08.230Z,3.37
2017-10-01T18:14:36.560Z,3.27
2017-10-01T18:17:04.860Z,3.70
2017-10-01T18:19:33.198Z,3.10
2017-10-01T18:22:02.282Z,3.30
2017-10-01T18:24:31.375Z,3.20
2017-10-01T18:27:00.454Z,3.60
2017-10-01T18:29:28.813Z,3.27
2017-10-01T18:31:57.126Z,3.07
2017-10-01T18:34:26.201Z,2.90
2017-10-01T18:36:54.532Z,2.27
2017-10-01T18:39:22.857Z,3.37
2017-10-01T18:41:51.192Z,2.60
2017-10-01T18:44:19.507Z,3.03
2017-10-01T18:46:47.839Z,2.60
2017-10-01T18:49:16.150Z,2.80
2017-10-01T18:51:44.478Z,2.30
2017-10-01T18:54:13.554Z,2.87
2017-10-01T18:56:41.885Z,2.50
2017-10-01T18:59:10.193Z,3.13
2017-10-01T19:01:38.529Z,2.77
2017-10-01T19:04:06.834Z,3.67
2017-10-01T19:06:35.162Z,3.67
2017-10-01T19:09:04.277Z,4.17
2017-10-01T19:11:32.680Z,4.37
2017-10-01T19:14:00.994Z,3.60
2017-10-01T19:16:29.357Z,4.53
2017-10-01T19:18:57.961Z,4.23
2017-10-01T19:21:26.326Z,3.50
2017-10-01T19:23:54.642Z,3.80
2017-10-01T19:26:23.738Z,3.40
2017-10-01T19:28:52.045Z,3.70
2017-10-01T19:31:20.389Z,3.10
2017-10-01T19:33:48.695Z,4.40
2017-10-01T19:36:17.005Z,4.47
2017-10-01T19:38:45.333Z,3.93
2017-10-01T19:41:14.401Z,3.90
2017-10-01T19:43:42.744Z,3.80
2017-10-01T19:46:14.232Z,4.00
2017-10-01T19:48:42.563Z,3.70
2017-10-01T19:51:10.890Z,3.97
2017-10-01T19:53:39.215Z,3.77
2017-10-01T19:56:07.518Z,3.00
2017-10-01T19:58:35.845Z,3.70
2017-10-01T20:01:04.156Z,2.87
2017-10-01T20:03:33.271Z,3.03
2017-10-01T20:06:01.589Z,3.50
2017-10-01T20:08:29.940Z,3.33
2017-10-01T20:10:58.237Z,3.97
2017-10-01T20:13:26.551Z,4.97
2017-10-01T20:15:55.646Z,4.90
2017-10-01T20:18:24.729Z,5.27
2017-10-01T20:20:53.834Z,5.60
2017-10-01T20:23:22.918Z,4.80
2017-10-01T20:25:51.239Z,5.53
2017-10-01T20:28:19.545Z,5.90
2017-10-01T20:30:47.869Z,7.30
2017-10-01T20:33:16.186Z,7.27
2017-10-01T20:35:44.521Z,8.67
2017-10-01T20:38:12.836Z,8.53
2017-10-01T20:40:41.158Z,7.20
2017-10-01T20:43:09.460Z,7.60
2017-10-01T20:45:37.841Z,5.57
2017-10-01T20:48:06.910Z,4.90
2017-10-01T20:50:35.234Z,4.80
2017-10-01T20:53:03.550Z,4.63
2017-10-01T20:55:31.845Z,5.07
2017-10-01T20:58:00.177Z,6.27
2017-10-01T21:00:28.486Z,6.30
2017-10-01T21:02:56.818Z,6.63
2017-10-01T21:05:25.125Z,6.40
2017-10-01T21:07:53.444Z,6.73
2017-10-01T21:10:21.743Z,4.77
2017-10-01T21:12:50.836Z,5.80
2017-10-01T21:15:23.448Z,5.47
2017-10-01T21:17:51.765Z,5.10
2017-10-01T21:20:20.065Z,5.47
2017-10-01T21:22:49.197Z,4.70
2017-10-01T21:25:17.506Z,7.43
2017-10-01T21:27:45.826Z,6.60
2017-10-01T21:30:14.930Z,6.40
2017-10-01T21:32:43.306Z,7.93
2017-10-01T21:35:12.394Z,9.90
2017-10-01T21:37:41.458Z,9.53
2017-10-01T21:40:09.789Z,10.17
2017-10-01T21:42:38.138Z,7.37
2017-10-01T21:45:07.235Z,6.97
2017-10-01T21:47:36.314Z,7.00
2017-10-01T21:50:04.640Z,6.13
2017-10-01T21:52:33.040Z,5.40
2017-10-01T21:55:01.390Z,4.80
2017-10-01T21:57:29.753Z,4.13
2017-10-01T21:59:58.858Z,4.27
2017-10-01T22:02:27.165Z,4.00
2017-10-01T22:04:55.489Z,3.83
2017-10-01T22:07:23.794Z,4.07
2017-10-01T22:09:54.862Z,4.53
2017-10-01T22:12:23.185Z,4.00
2017-10-01T22:14:51.542Z,3.93
2017-10-01T22:17:19.843Z,6.10
2017-10-01T22:19:48.154Z,6.50
2017-10-01T22:22:17.243Z,6.20
2017-10-01T22:24:45.552Z,6.53
2017-10-01T22:27:13.892Z,6.23
2017-10-01T22:29:42.958Z,6.53
2017-10-01T22:32:11.281Z,5.80
2017-10-01T22:34:41.264Z,5.80
2017-10-01T22:37:09.607Z,4.90
2017-10-01T22:39:37.921Z,5.63
2017-10-01T22:42:06.245Z,5.00
2017-10-01T22:44:34.554Z,5.37
2017-10-01T22:47:02.889Z,6.83
2017-10-01T22:49:31.958Z,6.40
2017-10-01T22:52:00.295Z,6.13
2017-10-01T22:54:28.601Z,8.47
2017-10-01T22:56:56.925Z,9.13
2017-10-01T22:59:25.249Z,7.17
2017-10-01T23:01:53.559Z,6.10
2017-10-01T23:04:22.651Z,6.13
2017-10-01T23:06:51.733Z,5.60
2017-10-01T23:09:20.074Z,4.93
2017-10-01T23:11:48.388Z,4.90
2017-10-01T23:14:16.727Z,5.07
2017-10-01T23:16:45.036Z,5.27
2017-10-01T23:19:13.358Z,5.50
2017-10-01T23:21:42.426Z,5.03
2017-10-01T23:24:10.754Z,5.40
2017-10-01T23:26:39.077Z,5.00
2017-10-01T23:29:07.405Z,4.40
2017-10-01T23:31:35.762Z,4.70
2017-10-01T23:34:04.839Z,4.40
2017-10-01T23:36:33.187Z,4.50
2017-10-01T23:39:01.493Z,4.47
2017-10-01T23:41:30.602Z,3.67
2017-10-01T23:43:58.907Z,3.77
2017-10-01T23:46:27.241Z,4.70
2017-10-01T23:48:55.542Z,4.27
2017-10-01T23:51:23.877Z,3.97
2017-10-01T23:53:52.182Z,4.30
2017-10-01T23:56:20.526Z,4.40
2017-10-01T23:58:48.820Z,3.80
